createdAt,value
2023-01-22T00:00:05.968Z,18.70
2023-01-22T00:02:35.789Z,18.88
2023-01-22T00:05:02.553Z,21.30
2023-01-22T00:07:29.107Z,20.65
2023-01-22T00:09:55.647Z,19.77
2023-01-22T00:12:22.156Z,20.52
2023-01-22T00:14:49.680Z,18.92
2023-01-22T00:17:16.329Z,18.95
2023-01-22T00:19:43.440Z,20.92
2023-01-22T00:22:11.456Z,18.77
2023-01-22T00:24:39.854Z,19.73
2023-01-22T00:27:06.623Z,21.02
2023-01-22T00:29:33.160Z,20.95
2023-01-22T00:31:59.775Z,19.20
2023-01-22T00:34:26.344Z,21.38
2023-01-22T00:36:55.131Z,20.80
2023-01-22T00:39:21.721Z,18.95
2023-01-22T00:41:49.771Z,20.70
2023-01-22T00:44:16.560Z,20.90
2023-01-22T00:46:43.237Z,22.55
2023-01-22T00:49:09.829Z,23.08
2023-01-22T00:51:37.041Z,20.73
2023-01-22T00:54:03.598Z,20.00
2023-01-22T00:56:30.114Z,20.50
2023-01-22T00:58:58.559Z,22.23
2023-01-22T01:01:25.215Z,21.60
2023-01-22T01:03:51.723Z,19.67
2023-01-22T01:06:21.752Z,21.40
2023-01-22T01:08:48.732Z,23.88
2023-01-22T01:11:23.056Z,21.35
2023-01-22T01:13:51.287Z,20.23
2023-01-22T01:16:21.047Z,19.77
2023-01-22T01:18:48.280Z,21.60
2023-01-22T01:21:15.369Z,20.83
2023-01-22T01:23:42.753Z,18.83
2023-01-22T01:26:12.295Z,20.38
2023-01-22T01:28:41.432Z,20.85
2023-01-22T01:31:11.554Z,18.83
2023-01-22T01:33:38.276Z,17.67
2023-01-22T01:36:47.194Z,18.92
2023-01-22T01:39:13.157Z,20.05
2023-01-22T01:41:39.709Z,19.73
2023-01-22T01:44:17.504Z,18.45
2023-01-22T01:46:51.550Z,20.08
2023-01-22T01:49:44.430Z,18.15
2023-01-22T01:52:13.019Z,19.08
2023-01-22T01:54:42.821Z,19.88
2023-01-22T01:57:14.482Z,19.15
2023-01-22T01:59:42.961Z,20.85
2023-01-22T02:02:09.517Z,19.27
2023-01-22T02:04:36.116Z,18.10
2023-01-22T02:07:05.266Z,19.95
2023-01-22T02:09:32.348Z,17.73
2023-01-22T02:11:58.866Z,18.02
2023-01-22T02:14:33.161Z,16.30
2023-01-22T02:17:08.725Z,17.98
2023-01-22T02:19:35.407Z,17.95
2023-01-22T02:22:01.937Z,16.17
2023-01-22T02:24:31.468Z,17.70
2023-01-22T02:26:58.011Z,17.00
2023-01-22T02:29:26.909Z,18.27
2023-01-22T02:31:53.509Z,17.23
2023-01-22T02:34:24.354Z,17.48
2023-01-22T02:36:51.576Z,16.05
2023-01-22T02:39:18.208Z,16.00
2023-01-22T02:41:45.326Z,16.10
2023-01-22T02:44:11.853Z,17.17
2023-01-22T02:46:38.825Z,16.45
2023-01-22T02:49:05.339Z,16.98
2023-01-22T02:51:32.097Z,16.67
2023-01-22T02:53:59.021Z,15.13
2023-01-22T02:56:25.587Z,16.15
2023-01-22T02:58:52.165Z,16.83
2023-01-22T03:01:24.313Z,14.48
2023-01-22T03:03:53.357Z,15.27
2023-01-22T03:06:21.900Z,14.88
2023-01-22T03:08:50.236Z,14.48
2023-01-22T03:11:16.757Z,15.02
2023-01-22T03:14:01.846Z,15.38
2023-01-22T03:16:46.703Z,13.18
2023-01-22T03:19:32.064Z,13.82
2023-01-22T03:21:58.565Z,12.60
2023-01-22T03:24:25.106Z,13.40
2023-01-22T03:26:51.636Z,13.45
2023-01-22T03:29:18.195Z,14.15
2023-01-22T03:31:48.344Z,15.30
2023-01-22T03:34:20.419Z,13.82
2023-01-22T03:36:47.192Z,12.55
2023-01-22T03:39:13.715Z,14.30
2023-01-22T03:41:40.684Z,11.98
2023-01-22T03:44:11.615Z,12.50
2023-01-22T03:46:40.254Z,12.30
2023-01-22T03:49:07.882Z,11.40
2023-01-22T03:51:35.227Z,13.23
2023-01-22T03:54:01.769Z,11.80
2023-01-22T03:56:28.677Z,11.02
2023-01-22T03:58:56.253Z,11.00
2023-01-22T04:01:25.302Z,10.82
2023-01-22T04:03:52.722Z,11.90
2023-01-22T04:06:20.724Z,11.32
2023-01-22T04:08:49.640Z,10.73
2023-01-22T04:11:16.325Z,11.32
2023-01-22T04:13:44.486Z,9.55
2023-01-22T04:16:12.652Z,10.35
2023-01-22T04:18:39.775Z,11.65
2023-01-22T04:21:06.318Z,11.70
2023-01-22T04:23:33.006Z,10.45
2023-01-22T04:25:59.577Z,11.13
2023-01-22T04:28:26.137Z,9.93
2023-01-22T04:30:54.880Z,9.90
2023-01-22T04:33:21.762Z,9.73
2023-01-22T04:35:53.217Z,10.98
2023-01-22T04:38:19.852Z,10.82
2023-01-22T04:40:46.603Z,9.65
2023-01-22T04:43:13.088Z,10.52
2023-01-22T04:45:39.672Z,8.93
2023-01-22T04:48:08.408Z,9.10
2023-01-22T04:50:35.464Z,8.73
2023-01-22T04:53:02.271Z,10.05
2023-01-22T04:55:29.444Z,9.20
2023-01-22T04:57:57.511Z,9.07
2023-01-22T05:00:25.234Z,10.25
2023-01-22T05:02:56.541Z,9.68
2023-01-22T05:05:23.432Z,7.00
2023-01-22T05:07:50.286Z,9.13
2023-01-22T05:10:17.325Z,7.55
2023-01-22T05:12:44.029Z,7.65
2023-01-22T05:15:23.136Z,8.68
2023-01-22T05:17:50.442Z,7.35
2023-01-22T05:20:17.433Z,6.90
2023-01-22T05:22:44.385Z,8.35
2023-01-22T05:25:11.116Z,6.88
2023-01-22T05:27:37.613Z,9.15
2023-01-22T05:30:05.932Z,7.25
2023-01-22T05:32:32.468Z,6.75
2023-01-22T05:34:58.949Z,6.28
2023-01-22T05:37:25.504Z,8.70
2023-01-22T05:39:52.104Z,6.68
2023-01-22T05:42:18.651Z,6.88
2023-01-22T05:44:45.206Z,6.53
2023-01-22T05:47:13.568Z,6.35
2023-01-22T05:49:40.326Z,6.68
2023-01-22T05:52:10.495Z,6.15
2023-01-22T05:54:38.830Z,6.55
2023-01-22T05:57:05.920Z,6.53
2023-01-22T05:59:32.635Z,7.30
2023-01-22T06:01:59.255Z,7.35
2023-01-22T06:04:25.848Z,6.72
2023-01-22T06:06:52.325Z,6.72
2023-01-22T06:09:18.859Z,7.22
2023-01-22T06:11:45.376Z,7.50
2023-01-22T06:14:11.924Z,5.57
2023-01-22T06:16:38.483Z,6.82
2023-01-22T06:19:05.057Z,6.40
2023-01-22T06:21:31.568Z,6.28
2023-01-22T06:23:58.109Z,5.53
2023-01-22T06:26:24.626Z,6.15
2023-01-22T06:28:51.274Z,5.28
2023-01-22T06:31:17.870Z,5.40
2023-01-22T06:33:44.560Z,5.93
2023-01-22T06:36:11.103Z,5.47
2023-01-22T06:38:38.591Z,6.85
2023-01-22T06:41:05.147Z,4.55
2023-01-22T06:43:31.827Z,5.78
2023-01-22T06:45:58.375Z,5.85
2023-01-22T06:48:24.936Z,6.10
2023-01-22T06:50:51.539Z,4.20
2023-01-22T06:53:18.081Z,4.13
2023-01-22T06:55:44.539Z,4.50
2023-01-22T06:58:11.047Z,3.83
2023-01-22T07:00:37.809Z,4.75
2023-01-22T07:03:08.066Z,5.03
2023-01-22T07:05:35.324Z,4.88
2023-01-22T07:08:02.252Z,5.22
2023-01-22T07:10:28.992Z,4.85
2023-01-22T07:12:56.594Z,4.13
2023-01-22T07:15:23.116Z,4.88
2023-01-22T07:17:54.810Z,6.03
2023-01-22T07:20:23.038Z,5.45
2023-01-22T07:22:50.373Z,3.80
2023-01-22T07:25:16.936Z,4.75
2023-01-22T07:27:43.504Z,2.95
2023-01-22T07:30:10.751Z,4.63
2023-01-22T07:32:37.588Z,5.55
2023-01-22T07:35:04.323Z,4.38
2023-01-22T07:37:30.790Z,4.00
2023-01-22T07:39:57.289Z,3.35
2023-01-22T07:42:23.785Z,3.53
2023-01-22T07:44:50.338Z,4.40
2023-01-22T07:47:16.851Z,3.58
2023-01-22T07:49:43.341Z,3.88
2023-01-22T07:52:09.906Z,3.05
2023-01-22T07:54:36.689Z,3.25
2023-01-22T07:57:04.259Z,4.35
2023-01-22T07:59:30.836Z,3.80
2023-01-22T08:01:57.408Z,2.80
2023-01-22T08:04:24.507Z,4.20
2023-01-22T08:06:51.971Z,3.95
2023-01-22T08:09:24.794Z,3.20
2023-01-22T08:11:52.410Z,3.50
2023-01-22T08:14:19.771Z,3.63
2023-01-22T08:16:46.784Z,2.83
2023-01-22T08:19:13.819Z,2.75
2023-01-22T08:21:40.370Z,3.00
2023-01-22T08:24:08.225Z,3.17
2023-01-22T08:26:35.021Z,3.88
2023-01-22T08:29:05.303Z,2.60
2023-01-22T08:31:33.628Z,3.13
2023-01-22T08:34:00.568Z,3.25
2023-01-22T08:36:27.443Z,3.20
2023-01-22T08:38:54.371Z,3.20
2023-01-22T08:41:21.476Z,3.03
2023-01-22T08:43:48.345Z,2.38
2023-01-22T08:46:14.886Z,5.05
2023-01-22T08:48:43.323Z,2.65
2023-01-22T08:51:11.535Z,3.15
2023-01-22T08:53:38.198Z,3.28
2023-01-22T08:56:05.116Z,3.78
2023-01-22T08:58:31.785Z,2.92
2023-01-22T09:00:58.354Z,2.60
2023-01-22T09:03:24.989Z,2.97
2023-01-22T09:05:51.683Z,3.05
2023-01-22T09:08:18.236Z,2.72
2023-01-22T09:10:44.775Z,3.35
2023-01-22T09:13:11.534Z,3.65
2023-01-22T09:15:40.121Z,3.25
2023-01-22T09:18:06.942Z,4.60
2023-01-22T09:20:33.859Z,5.75
2023-01-22T09:23:00.355Z,4.30
2023-01-22T09:25:26.928Z,5.88
2023-01-22T09:28:05.012Z,8.10
2023-01-22T09:30:32.233Z,6.95
2023-01-22T09:32:59.210Z,6.88
2023-01-22T09:35:27.383Z,6.72
2023-01-22T09:37:54.800Z,7.00
2023-01-22T09:40:32.541Z,7.70
2023-01-22T09:43:07.813Z,8.68
2023-01-22T09:45:38.593Z,9.00
2023-01-22T09:48:11.502Z,8.73
2023-01-22T09:50:40.161Z,10.23
2023-01-22T09:53:12.445Z,8.82
2023-01-22T09:55:44.638Z,8.70
2023-01-22T09:58:16.230Z,9.85
2023-01-22T10:00:50.925Z,10.48
2023-01-22T10:03:31.476Z,8.93
2023-01-22T10:06:09.021Z,9.80
2023-01-22T10:09:01.571Z,9.98
2023-01-22T10:11:28.304Z,12.20
2023-01-22T10:13:58.647Z,12.13
2023-01-22T10:16:25.568Z,10.68
2023-01-22T10:18:58.822Z,11.15
2023-01-22T10:21:31.465Z,9.82
2023-01-22T10:23:58.814Z,10.50
2023-01-22T10:26:33.273Z,10.00
2023-01-22T10:29:05.736Z,9.98
2023-01-22T10:31:38.328Z,11.00
2023-01-22T10:34:13.062Z,10.88
2023-01-22T10:36:39.819Z,12.02
2023-01-22T10:39:14.841Z,11.80
2023-01-22T10:41:42.571Z,13.65
2023-01-22T10:44:29.354Z,13.50
2023-01-22T10:47:06.654Z,15.30
2023-01-22T10:49:33.255Z,17.15
2023-01-22T10:52:06.947Z,13.80
2023-01-22T10:54:40.437Z,15.55
2023-01-22T10:57:18.990Z,15.10
2023-01-22T10:59:52.314Z,15.98
2023-01-22T11:02:23.562Z,13.95
2023-01-22T11:04:51.212Z,14.82
2023-01-22T11:07:38.283Z,16.35
2023-01-22T11:10:31.224Z,14.65
2023-01-22T11:13:07.404Z,14.23
2023-01-22T11:15:56.100Z,15.38
2023-01-22T11:18:49.229Z,18.63
2023-01-22T11:21:19.487Z,16.73
2023-01-22T11:23:59.570Z,15.18
2023-01-22T11:26:48.855Z,15.98
2023-01-22T11:29:34.120Z,17.85
2023-01-22T11:32:22.562Z,15.75
2023-01-22T11:35:04.963Z,16.65
2023-01-22T11:38:03.842Z,19.42
2023-01-22T11:40:39.130Z,17.80
2023-01-22T11:43:30.478Z,16.38
2023-01-22T11:46:14.019Z,16.23
2023-01-22T11:48:58.670Z,17.77
2023-01-22T11:51:36.300Z,19.85
2023-01-22T11:54:12.288Z,17.58
2023-01-22T11:57:08.846Z,17.60
2023-01-22T12:00:00.006Z,18.42
2023-01-22T12:02:45.530Z,19.73
2023-01-22T12:05:17.028Z,16.85
2023-01-22T12:07:46.319Z,16.15
2023-01-22T12:10:43.813Z,15.07
2023-01-22T12:13:43.408Z,17.45
2023-01-22T12:16:50.996Z,16.55
2023-01-22T12:19:48.615Z,17.13
2023-01-22T12:22:43.095Z,18.08
2023-01-22T12:25:25.055Z,17.92
2023-01-22T12:28:00.070Z,15.75
2023-01-22T12:30:43.663Z,16.20
2023-01-22T12:33:13.998Z,18.80
2023-01-22T12:35:42.070Z,18.92
2023-01-22T12:38:12.507Z,20.20
2023-01-22T12:41:02.145Z,18.40
2023-01-22T12:44:21.619Z,16.75
2023-01-22T12:46:56.679Z,18.70
2023-01-22T12:49:23.232Z,18.35
2023-01-22T12:51:52.794Z,20.02
2023-01-22T12:54:28.507Z,18.35
2023-01-22T12:57:09.048Z,18.13
2023-01-22T12:59:35.486Z,19.83
2023-01-22T13:02:20.981Z,22.95
2023-01-22T13:04:47.817Z,23.08
2023-01-22T13:07:29.324Z,23.35
2023-01-22T13:10:29.411Z,20.02
2023-01-22T13:13:00.858Z,22.15
2023-01-22T13:15:32.103Z,19.83
2023-01-22T13:18:08.357Z,18.70
2023-01-22T13:20:45.601Z,20.05
2023-01-22T13:23:13.859Z,22.02
2023-01-22T13:25:41.132Z,21.48
2023-01-22T13:28:10.605Z,20.27
2023-01-22T13:30:37.449Z,19.33
2023-01-22T13:33:15.289Z,19.70
2023-01-22T13:35:46.568Z,17.52
2023-01-22T13:38:25.134Z,17.50
2023-01-22T13:41:02.264Z,16.85
2023-01-22T13:43:29.492Z,17.08
2023-01-22T13:45:57.483Z,16.45
2023-01-22T13:48:26.024Z,15.60
2023-01-22T13:50:56.221Z,15.90
2023-01-22T13:53:30.256Z,14.50
2023-01-22T13:55:58.145Z,15.68
2023-01-22T13:58:46.653Z,14.18
2023-01-22T14:01:28.092Z,13.65
2023-01-22T14:04:04.937Z,11.73
2023-01-22T14:06:43.908Z,13.55
2023-01-22T14:09:10.622Z,11.38
2023-01-22T14:11:39.125Z,11.80
2023-01-22T14:14:16.180Z,11.18
2023-01-22T14:16:42.836Z,9.98
2023-01-22T14:19:09.389Z,10.48
2023-01-22T14:21:37.368Z,11.38
2023-01-22T14:24:04.598Z,9.35
2023-01-22T14:26:31.271Z,9.35
2023-01-22T14:28:57.810Z,10.27
2023-01-22T14:31:24.442Z,10.90
2023-01-22T14:33:51.006Z,9.82
2023-01-22T14:36:18.517Z,9.48
2023-01-22T14:38:45.057Z,9.25
2023-01-22T14:41:11.585Z,8.32
2023-01-22T14:43:38.056Z,8.90
2023-01-22T14:46:08.021Z,8.50
2023-01-22T14:48:34.676Z,8.75
2023-01-22T14:51:06.976Z,6.70
2023-01-22T14:53:33.523Z,6.95
2023-01-22T14:56:00.053Z,7.20
2023-01-22T14:58:26.578Z,6.88
2023-01-22T15:00:53.963Z,7.53
2023-01-22T15:03:20.585Z,10.20
2023-01-22T15:05:51.017Z,6.82
2023-01-22T15:08:17.652Z,8.68
2023-01-22T15:10:45.139Z,8.10
2023-01-22T15:13:11.697Z,9.32
2023-01-22T15:15:38.338Z,7.00
2023-01-22T15:18:04.883Z,8.45
2023-01-22T15:20:31.440Z,7.55
2023-01-22T15:22:58.087Z,5.38
2023-01-22T15:25:24.628Z,7.05
2023-01-22T15:27:51.169Z,6.38
2023-01-22T15:30:18.398Z,5.95
2023-01-22T15:32:45.211Z,5.60
2023-01-22T15:35:11.890Z,5.25
2023-01-22T15:37:38.671Z,5.60
2023-01-22T15:40:05.728Z,4.53
2023-01-22T15:42:35.499Z,5.97
2023-01-22T15:45:04.093Z,5.63
2023-01-22T15:47:30.618Z,5.65
2023-01-22T15:49:57.169Z,4.70
2023-01-22T15:52:23.744Z,5.15
2023-01-22T15:54:53.519Z,5.57
2023-01-22T15:57:20.188Z,5.85
2023-01-22T15:59:46.743Z,5.00
2023-01-22T16:02:13.333Z,4.45
2023-01-22T16:04:39.963Z,5.30
2023-01-22T16:07:06.481Z,6.55
2023-01-22T16:09:34.290Z,7.75
2023-01-22T16:12:00.872Z,6.22
2023-01-22T16:14:29.115Z,4.50
2023-01-22T16:16:55.676Z,4.05
2023-01-22T16:19:22.253Z,6.30
2023-01-22T16:21:48.787Z,4.65
2023-01-22T16:24:15.683Z,4.97
2023-01-22T16:26:42.224Z,5.40
2023-01-22T16:29:08.942Z,5.05
2023-01-22T16:31:36.173Z,4.70
2023-01-22T16:34:20.594Z,5.70
2023-01-22T16:36:48.740Z,5.40
2023-01-22T16:39:24.938Z,4.20
2023-01-22T16:41:52.655Z,6.65
2023-01-22T16:44:24.496Z,4.85
2023-01-22T16:46:54.216Z,4.85
2023-01-22T16:49:26.330Z,4.65
2023-01-22T16:51:55.745Z,4.53
2023-01-22T16:54:27.863Z,4.35
2023-01-22T16:56:56.235Z,4.65
2023-01-22T16:59:23.097Z,5.65
2023-01-22T17:01:49.962Z,5.95
2023-01-22T17:04:16.737Z,5.78
2023-01-22T17:06:46.902Z,5.18
2023-01-22T17:09:17.147Z,6.20
2023-01-22T17:11:46.281Z,4.93
2023-01-22T17:14:15.241Z,4.28
2023-01-22T17:16:41.791Z,4.85
2023-01-22T17:19:08.312Z,4.30
2023-01-22T17:21:34.866Z,4.68
2023-01-22T17:24:01.568Z,5.55
2023-01-22T17:26:28.211Z,4.63
2023-01-22T17:28:55.099Z,5.50
2023-01-22T17:31:22.473Z,4.55
2023-01-22T17:33:49.714Z,5.38
2023-01-22T17:36:19.074Z,6.00
2023-01-22T17:38:46.029Z,5.35
2023-01-22T17:41:16.010Z,4.85
2023-01-22T17:43:44.180Z,5.03
2023-01-22T17:46:14.045Z,6.90
2023-01-22T17:48:40.701Z,5.43
2023-01-22T17:51:13.154Z,5.28
2023-01-22T17:53:42.532Z,5.75
2023-01-22T17:56:13.246Z,6.15
2023-01-22T17:58:52.483Z,6.85
2023-01-22T18:01:21.276Z,6.63
2023-01-22T18:03:48.105Z,8.50
2023-01-22T18:06:15.220Z,8.68
2023-01-22T18:08:42.667Z,9.10
2023-01-22T18:11:15.446Z,7.75
2023-01-22T18:13:42.700Z,8.52
2023-01-22T18:16:12.138Z,9.20
2023-01-22T18:18:38.848Z,7.05
2023-01-22T18:21:11.717Z,6.97
2023-01-22T18:23:38.214Z,7.63
2023-01-22T18:26:06.812Z,8.07
2023-01-22T18:28:34.641Z,8.18
2023-01-22T18:31:07.205Z,9.18
2023-01-22T18:33:37.213Z,7.90
2023-01-22T18:36:10.966Z,9.52
2023-01-22T18:38:38.327Z,8.88
2023-01-22T18:41:10.601Z,9.73
2023-01-22T18:43:38.427Z,8.52
2023-01-22T18:46:14.443Z,8.38
2023-01-22T18:48:42.328Z,8.60
2023-01-22T18:51:11.098Z,8.75
2023-01-22T18:53:37.808Z,8.30
2023-01-22T18:56:06.294Z,9.57
2023-01-22T18:58:36.322Z,11.45
2023-01-22T19:01:29.719Z,10.10
2023-01-22T19:03:58.831Z,9.82
2023-01-22T19:06:31.524Z,11.32
2023-01-22T19:09:06.079Z,12.27
2023-01-22T19:11:37.267Z,10.57
2023-01-22T19:14:06.386Z,11.15
2023-01-22T19:16:33.255Z,10.38
2023-01-22T19:19:07.805Z,12.77
2023-01-22T19:21:34.306Z,11.15
2023-01-22T19:24:01.883Z,12.07
2023-01-22T19:26:31.396Z,11.57
2023-01-22T19:29:05.227Z,13.77
2023-01-22T19:34:00.167Z,13.55
2023-01-22T19:36:30.215Z,12.68
2023-01-22T19:38:58.580Z,13.05
2023-01-22T19:41:26.664Z,13.70
2023-01-22T19:43:54.563Z,13.70
2023-01-22T19:46:21.138Z,12.70
2023-01-22T19:48:47.711Z,11.98
2023-01-22T19:51:17.134Z,12.20
2023-01-22T19:53:44.315Z,11.93
2023-01-22T19:56:27.184Z,13.25
2023-01-22T19:58:57.768Z,12.60
2023-01-22T20:01:24.396Z,16.40
2023-01-22T20:03:51.305Z,14.05
2023-01-22T20:06:18.177Z,12.63
2023-01-22T20:08:45.910Z,14.27
2023-01-22T20:11:13.574Z,13.88
2023-01-22T20:13:41.645Z,14.10
2023-01-22T20:16:17.957Z,13.68
2023-01-22T20:18:44.950Z,15.25
2023-01-22T20:21:12.015Z,14.73
2023-01-22T20:23:38.596Z,13.68
2023-01-22T20:26:09.765Z,13.40
2023-01-22T20:28:37.144Z,14.25
2023-01-22T20:31:07.735Z,15.10
2023-01-22T20:33:34.281Z,14.68
2023-01-22T20:36:05.034Z,14.68
2023-01-22T20:38:31.603Z,15.65
2023-01-22T20:41:04.566Z,16.05
2023-01-22T20:43:32.393Z,14.07
2023-01-22T20:46:15.115Z,14.80
2023-01-22T20:48:42.463Z,13.82
2023-01-22T20:51:18.133Z,15.50
2023-01-22T20:53:46.636Z,14.55
2023-01-22T20:56:15.745Z,14.23
2023-01-22T20:58:42.637Z,14.30
2023-01-22T21:01:14.600Z,15.18
2023-01-22T21:03:42.688Z,16.90
2023-01-22T21:06:13.579Z,14.25
2023-01-22T21:08:40.986Z,13.35
2023-01-22T21:11:11.803Z,14.95
2023-01-22T21:13:38.804Z,14.60
2023-01-22T21:16:11.614Z,16.58
2023-01-22T21:18:41.436Z,16.10
2023-01-22T21:21:09.227Z,16.73
2023-01-22T21:23:37.203Z,14.30
2023-01-22T21:26:09.535Z,14.55
2023-01-22T21:28:37.346Z,15.57
2023-01-22T21:31:09.419Z,14.70
2023-01-22T21:33:36.096Z,14.73
2023-01-22T21:36:04.287Z,14.63
2023-01-22T21:38:30.841Z,14.98
2023-01-22T21:41:12.836Z,14.50
2023-01-22T21:43:59.789Z,14.07
2023-01-22T21:46:28.093Z,13.82
2023-01-22T21:48:58.327Z,13.57
2023-01-22T21:51:26.041Z,14.40
2023-01-22T21:53:54.884Z,16.40
2023-01-22T21:56:21.581Z,12.95
2023-01-22T21:58:48.199Z,14.73
2023-01-22T22:01:17.794Z,12.88
2023-01-22T22:03:44.486Z,14.65
2023-01-22T22:06:13.250Z,14.77
2023-01-22T22:08:43.138Z,16.25
2023-01-22T22:11:10.351Z,13.27
2023-01-22T22:13:36.969Z,15.88
2023-01-22T22:16:05.480Z,14.15
2023-01-22T22:18:32.362Z,14.82
2023-01-22T22:21:04.840Z,14.05
2023-01-22T22:23:31.888Z,14.63
2023-01-22T22:25:59.181Z,14.05
2023-01-22T22:28:25.731Z,15.10
2023-01-22T22:30:52.859Z,13.38
2023-01-22T22:33:19.524Z,13.55
2023-01-22T22:35:47.133Z,13.20
2023-01-22T22:38:14.664Z,12.63
2023-01-22T22:40:41.688Z,12.60
2023-01-22T22:43:09.236Z,13.65
2023-01-22T22:45:37.721Z,13.38
2023-01-22T22:48:04.968Z,14.02
2023-01-22T22:50:31.537Z,11.82
2023-01-22T22:52:58.097Z,14.63
2023-01-22T22:55:26.593Z,14.85
2023-01-22T22:57:53.176Z,14.63
2023-01-22T23:00:20.110Z,15.00
2023-01-22T23:02:46.771Z,15.35
2023-01-22T23:05:13.314Z,13.52
2023-01-22T23:07:39.850Z,12.50
2023-01-22T23:10:07.760Z,14.10
2023-01-22T23:12:34.333Z,13.30
2023-01-22T23:15:00.838Z,13.50
2023-01-22T23:17:27.333Z,12.98
2023-01-22T23:19:53.872Z,14.02
2023-01-22T23:22:20.374Z,14.48
2023-01-22T23:24:47.253Z,13.02
2023-01-22T23:27:13.907Z,13.48
2023-01-22T23:29:40.426Z,16.85
2023-01-22T23:32:06.916Z,13.38
2023-01-22T23:34:33.481Z,14.25
2023-01-22T23:36:59.965Z,14.57
2023-01-22T23:39:26.469Z,16.30
2023-01-22T23:41:52.996Z,13.90
2023-01-22T23:44:19.486Z,13.15
2023-01-22T23:46:46.141Z,11.85
2023-01-22T23:49:12.804Z,13.95
2023-01-22T23:51:42.065Z,14.65
2023-01-22T23:54:09.239Z,14.38
2023-01-22T23:56:36.500Z,13.57
2023-01-22T23:59:03.829Z,12.30
